createdAt,value
2019-02-16T00:00:21.229Z,91.80
2019-02-16T00:02:53.429Z,91.20
2019-02-16T00:05:23.998Z,91.30
2019-02-16T00:07:54.592Z,91.10
2019-02-16T00:10:25.204Z,91.00
2019-02-16T00:12:55.784Z,90.90
2019-02-16T00:15:26.340Z,91.00
2019-02-16T00:17:56.919Z,91.00
2019-02-16T00:20:27.429Z,91.00
2019-02-16T00:22:58.024Z,91.20
2019-02-16T00:25:28.616Z,91.10
2019-02-16T00:27:59.272Z,91.30
2019-02-16T00:30:29.923Z,91.30
2019-02-16T00:33:00.514Z,91.10
2019-02-16T00:35:31.048Z,91.10
2019-02-16T00:38:01.732Z,91.10
2019-02-16T00:40:32.373Z,91.20
2019-02-16T00:43:02.983Z,91.20
2019-02-16T00:45:33.535Z,91.10
2019-02-16T00:48:04.065Z,91.00
2019-02-16T00:50:34.707Z,91.20
2019-02-16T00:53:05.301Z,91.10
2019-02-16T00:55:35.907Z,91.20
2019-02-16T00:58:06.435Z,91.00
2019-02-16T01:00:37.067Z,91.30
2019-02-16T01:03:07.668Z,91.10
2019-02-16T01:05:38.282Z,91.10
2019-02-16T01:08:08.906Z,91.20
2019-02-16T01:10:39.542Z,91.30
2019-02-16T01:13:10.102Z,91.20
2019-02-16T01:15:40.738Z,91.30
2019-02-16T01:18:11.382Z,91.40
2019-02-16T01:20:41.972Z,91.20
2019-02-16T01:23:13.615Z,91.50
2019-02-16T01:25:44.200Z,91.20
2019-02-16T01:28:14.784Z,91.30
2019-02-16T01:30:45.417Z,91.30
2019-02-16T01:33:15.966Z,91.20
2019-02-16T01:35:46.527Z,91.30
2019-02-16T01:38:17.223Z,91.20
2019-02-16T01:40:48.042Z,91.10
2019-02-16T01:43:18.637Z,91.10
2019-02-16T01:45:49.170Z,91.40
2019-02-16T01:48:19.788Z,91.10
2019-02-16T01:50:50.364Z,91.20
2019-02-16T01:53:21.381Z,91.30
2019-02-16T01:55:52.033Z,90.90
2019-02-16T01:58:22.860Z,90.90
2019-02-16T02:00:53.400Z,90.90
2019-02-16T02:03:24.038Z,90.90
2019-02-16T02:05:54.637Z,90.90
2019-02-16T02:08:25.280Z,90.90
2019-02-16T02:10:55.872Z,90.40
2019-02-16T02:13:26.529Z,90.90
2019-02-16T02:15:57.157Z,90.60
2019-02-16T02:18:27.786Z,90.50
2019-02-16T02:20:58.430Z,90.80
2019-02-16T02:23:29.035Z,90.60
2019-02-16T02:25:59.691Z,90.60
2019-02-16T02:28:30.291Z,90.60
2019-02-16T02:31:00.877Z,90.80
2019-02-16T02:33:31.528Z,90.80
2019-02-16T02:36:02.121Z,90.30
2019-02-16T02:38:32.706Z,90.70
2019-02-16T02:41:03.298Z,90.70
2019-02-16T02:43:33.918Z,90.90
2019-02-16T02:46:04.528Z,91.30
2019-02-16T02:48:35.181Z,90.60
2019-02-16T02:51:05.738Z,90.80
2019-02-16T02:53:36.338Z,90.70
2019-02-16T02:56:06.889Z,90.60
2019-02-16T02:58:37.466Z,90.20
2019-02-16T03:01:08.008Z,90.80
2019-02-16T03:03:38.657Z,90.20
2019-02-16T03:06:09.231Z,90.50
2019-02-16T03:08:39.790Z,90.70
2019-02-16T03:11:11.408Z,90.70
2019-02-16T03:13:42.030Z,90.40
2019-02-16T03:16:12.576Z,90.60
2019-02-16T03:18:43.181Z,90.30
2019-02-16T03:21:13.921Z,90.40
2019-02-16T03:23:44.556Z,90.40
2019-02-16T03:26:53.815Z,90.10
2019-02-16T03:29:42.052Z,90.50
2019-02-16T03:32:43.203Z,90.40
2019-02-16T03:35:49.847Z,90.50
2019-02-16T03:38:47.962Z,90.10
2019-02-16T03:41:18.639Z,90.10
2019-02-16T03:43:49.303Z,90.10
2019-02-16T03:46:19.937Z,90.40
2019-02-16T03:48:50.472Z,89.80
2019-02-16T03:51:22.243Z,90.40
2019-02-16T03:53:52.789Z,90.10
2019-02-16T03:56:23.471Z,89.90
2019-02-16T03:58:54.027Z,90.30
2019-02-16T04:01:24.664Z,90.40
2019-02-16T04:03:55.294Z,90.30
2019-02-16T04:06:25.845Z,90.50
2019-02-16T04:08:56.387Z,90.20
2019-02-16T04:11:26.954Z,90.50
2019-02-16T04:13:57.625Z,90.50
2019-02-16T04:16:28.250Z,90.20
2019-02-16T04:18:58.789Z,90.30
2019-02-16T04:21:29.647Z,90.00
2019-02-16T04:24:00.356Z,90.10
2019-02-16T04:26:31.046Z,90.20
2019-02-16T04:29:01.550Z,89.70
2019-02-16T04:31:32.197Z,90.00
2019-02-16T04:34:02.752Z,90.00
2019-02-16T04:36:33.345Z,90.20
2019-02-16T04:39:05.467Z,90.00
2019-02-16T04:41:36.098Z,90.00
2019-02-16T04:44:06.715Z,90.10
2019-02-16T04:46:37.245Z,89.90
2019-02-16T04:49:07.987Z,89.70
2019-02-16T04:51:38.605Z,90.00
2019-02-16T04:54:09.175Z,89.70
2019-02-16T04:56:40.921Z,90.00
2019-02-16T04:59:11.578Z,89.70
2019-02-16T05:01:42.123Z,90.10
2019-02-16T05:04:12.657Z,89.40
2019-02-16T05:06:43.260Z,89.10
2019-02-16T05:09:13.847Z,88.90
2019-02-16T05:11:44.474Z,89.70
2019-02-16T05:14:15.057Z,89.40
2019-02-16T05:16:45.689Z,90.00
2019-02-16T05:19:16.242Z,90.00
2019-02-16T05:21:47.081Z,90.00
2019-02-16T05:24:17.566Z,89.30
2019-02-16T05:26:48.185Z,90.00
2019-02-16T05:29:18.772Z,89.40
2019-02-16T05:31:49.343Z,90.00
2019-02-16T05:34:19.999Z,89.80
2019-02-16T05:36:50.613Z,90.20
2019-02-16T05:39:21.188Z,90.20
2019-02-16T05:41:51.822Z,90.10
2019-02-16T05:44:22.517Z,90.10
2019-02-16T05:46:53.060Z,90.00
2019-02-16T05:49:23.607Z,89.90
2019-02-16T05:51:54.181Z,89.30
2019-02-16T05:54:24.745Z,89.90
2019-02-16T05:56:55.371Z,90.00
2019-02-16T05:59:26.056Z,89.60
2019-02-16T06:01:56.740Z,89.60
2019-02-16T06:04:27.444Z,89.10
2019-02-16T06:06:58.251Z,88.50
2019-02-16T06:09:29.126Z,89.40
2019-02-16T06:11:59.822Z,89.10
2019-02-16T06:14:31.122Z,88.70
2019-02-16T06:17:01.775Z,88.10
2019-02-16T06:19:32.435Z,87.80
2019-02-16T06:22:03.135Z,87.20
2019-02-16T06:24:33.870Z,87.70
2019-02-16T06:27:05.078Z,88.90
2019-02-16T06:29:35.741Z,88.40
2019-02-16T06:32:06.333Z,88.40
2019-02-16T06:34:36.918Z,86.80
2019-02-16T06:37:22.171Z,85.80
2019-02-16T06:39:52.894Z,82.80
2019-02-16T06:42:23.600Z,78.60
2019-02-16T06:44:54.262Z,75.30
2019-02-16T06:47:24.984Z,71.00
2019-02-16T06:49:55.580Z,67.10
2019-02-16T06:52:26.374Z,64.80
2019-02-16T06:54:57.047Z,64.10
2019-02-16T06:57:29.587Z,61.20
2019-02-16T07:00:00.350Z,59.40
2019-02-16T07:02:31.512Z,58.30
2019-02-16T07:05:02.126Z,59.40
2019-02-16T07:07:32.778Z,59.60
2019-02-16T07:10:04.985Z,59.90
2019-02-16T07:12:35.584Z,60.40
2019-02-16T07:15:06.534Z,62.00
2019-02-16T07:17:51.453Z,63.60
2019-02-16T07:20:23.938Z,62.50
2019-02-16T07:22:55.752Z,64.40
2019-02-16T07:25:26.358Z,62.30
2019-02-16T07:27:56.980Z,63.10
2019-02-16T07:30:27.683Z,64.30
2019-02-16T07:32:58.260Z,64.70
2019-02-16T07:35:28.866Z,64.00
2019-02-16T07:37:59.525Z,63.00
2019-02-16T07:40:30.213Z,62.90
2019-02-16T07:43:00.904Z,63.90
2019-02-16T07:45:49.739Z,63.30
2019-02-16T07:48:25.343Z,59.70
2019-02-16T07:51:03.511Z,62.10
2019-02-16T07:54:11.681Z,61.50
2019-02-16T07:56:49.839Z,63.30
2019-02-16T07:59:45.486Z,61.80
2019-02-16T08:02:43.896Z,62.70
2019-02-16T08:05:36.178Z,62.10
2019-02-16T08:08:25.670Z,60.00
2019-02-16T08:11:08.850Z,60.60
2019-02-16T08:14:18.841Z,60.60
2019-02-16T08:17:17.489Z,61.70
2019-02-16T08:20:05.472Z,62.50
2019-02-16T08:22:55.072Z,64.30
2019-02-16T08:25:43.040Z,64.20
2019-02-16T08:28:27.295Z,64.40
2019-02-16T08:31:16.991Z,66.90
2019-02-16T08:33:58.104Z,67.90
2019-02-16T08:36:37.433Z,67.00
2019-02-16T08:39:16.672Z,68.30
2019-02-16T08:42:08.842Z,69.10
2019-02-16T08:45:01.264Z,68.80
2019-02-16T08:47:59.845Z,68.90
2019-02-16T08:50:52.148Z,69.00
2019-02-16T08:53:49.832Z,71.40
2019-02-16T08:56:38.288Z,73.20
2019-02-16T08:59:26.541Z,70.90
2019-02-16T09:02:14.785Z,73.00
2019-02-16T09:05:04.724Z,70.10
2019-02-16T09:08:07.413Z,67.90
2019-02-16T09:11:06.157Z,69.00
2019-02-16T09:13:45.817Z,67.80
2019-02-16T09:16:42.091Z,71.00
2019-02-16T09:19:49.904Z,69.30
2019-02-16T09:22:28.040Z,71.50
2019-02-16T09:25:32.661Z,72.20
2019-02-16T09:28:18.961Z,68.60
2019-02-16T09:30:58.444Z,70.70
2019-02-16T09:33:36.518Z,66.20
2019-02-16T09:36:25.964Z,65.00
2019-02-16T09:39:18.175Z,66.80
2019-02-16T09:41:57.274Z,65.20
2019-02-16T09:44:46.110Z,66.30
2019-02-16T09:47:27.507Z,64.60
2019-02-16T09:50:09.172Z,65.50
2019-02-16T09:52:47.704Z,63.60
2019-02-16T09:55:52.433Z,63.80
2019-02-16T09:58:32.404Z,65.20
2019-02-16T10:01:11.210Z,65.10
2019-02-16T10:04:00.609Z,63.80
2019-02-16T10:06:58.930Z,63.80
2019-02-16T10:09:51.571Z,66.30
2019-02-16T10:12:39.913Z,67.20
2019-02-16T10:15:28.334Z,64.70
2019-02-16T10:18:14.100Z,65.70
2019-02-16T10:21:02.901Z,66.90
2019-02-16T10:23:52.366Z,67.90
2019-02-16T10:26:53.951Z,65.80
2019-02-16T10:29:44.921Z,66.20
2019-02-16T10:32:37.300Z,64.50
2019-02-16T10:35:25.721Z,67.30
2019-02-16T10:38:15.116Z,64.60
2019-02-16T10:41:16.552Z,65.60
2019-02-16T10:43:58.017Z,65.20
2019-02-16T10:46:48.759Z,65.60
2019-02-16T10:49:26.103Z,65.70
2019-02-16T10:52:18.683Z,66.80
2019-02-16T10:55:17.302Z,65.40
2019-02-16T10:58:11.043Z,66.30
2019-02-16T11:01:06.420Z,64.10
2019-02-16T11:03:54.580Z,64.80
2019-02-16T11:06:41.842Z,64.40
2019-02-16T11:09:28.364Z,64.20
2019-02-16T11:12:16.840Z,65.20
2019-02-16T11:15:09.075Z,64.40
2019-02-16T11:18:16.718Z,65.10
2019-02-16T11:21:12.053Z,64.60
2019-02-16T11:24:04.268Z,63.60
2019-02-16T11:26:53.824Z,63.80
2019-02-16T11:29:43.345Z,63.50
2019-02-16T11:32:31.238Z,63.70
2019-02-16T11:35:15.644Z,64.80
2019-02-16T11:38:00.604Z,63.40
2019-02-16T11:41:02.345Z,63.60
2019-02-16T11:43:41.148Z,63.50
2019-02-16T11:46:28.569Z,63.60
2019-02-16T11:49:15.208Z,63.30
2019-02-16T11:52:10.601Z,63.90
2019-02-16T11:55:03.600Z,63.90
2019-02-16T11:58:00.411Z,63.70
2019-02-16T12:00:58.750Z,62.70
2019-02-16T12:03:34.467Z,62.70
2019-02-16T12:06:08.983Z,62.80
2019-02-16T12:08:58.382Z,63.70
2019-02-16T12:11:43.140Z,62.70
2019-02-16T12:14:42.012Z,63.10
2019-02-16T12:17:31.507Z,63.00
2019-02-16T12:20:33.171Z,62.80
2019-02-16T12:23:20.557Z,62.50
2019-02-16T12:26:08.953Z,62.90
2019-02-16T12:28:52.953Z,62.40
2019-02-16T12:31:40.764Z,61.50
2019-02-16T12:34:33.016Z,62.00
2019-02-16T12:37:18.559Z,62.30
2019-02-16T12:39:55.172Z,62.90
2019-02-16T12:42:43.644Z,61.40
2019-02-16T12:45:39.442Z,61.20
2019-02-16T12:48:44.197Z,59.30
2019-02-16T12:51:26.090Z,60.90
2019-02-16T12:54:27.570Z,58.70
2019-02-16T12:57:17.104Z,58.40
2019-02-16T12:59:52.961Z,58.30
2019-02-16T13:02:36.276Z,56.90
2019-02-16T13:05:25.787Z,57.90
2019-02-16T13:08:10.384Z,56.50
2019-02-16T13:11:04.827Z,56.50
2019-02-16T13:13:54.264Z,55.40
2019-02-16T13:16:49.600Z,55.50
2019-02-16T13:19:40.325Z,54.90
2019-02-16T13:22:28.516Z,55.50
2019-02-16T13:25:24.319Z,55.40
2019-02-16T13:28:23.648Z,56.80
2019-02-16T13:31:13.586Z,56.20
2019-02-16T13:33:58.283Z,55.80
2019-02-16T13:36:34.962Z,55.80
2019-02-16T13:39:26.334Z,56.90
2019-02-16T13:42:02.113Z,56.40
2019-02-16T13:44:44.380Z,57.70
2019-02-16T13:47:20.602Z,57.30
2019-02-16T13:50:01.736Z,58.30
2019-02-16T13:52:56.811Z,57.80
2019-02-16T13:55:42.308Z,58.20
2019-02-16T13:58:30.443Z,58.70
2019-02-16T14:01:35.071Z,58.60
2019-02-16T14:04:23.060Z,58.80
2019-02-16T14:07:18.317Z,59.50
2019-02-16T14:10:10.516Z,59.80
2019-02-16T14:13:09.194Z,60.30
2019-02-16T14:15:52.984Z,60.60
2019-02-16T14:18:23.541Z,61.10
2019-02-16T14:20:54.494Z,61.20
2019-02-16T14:23:25.000Z,61.50
2019-02-16T14:25:55.650Z,62.10
2019-02-16T14:28:26.137Z,62.30
2019-02-16T14:30:56.661Z,62.70
2019-02-16T14:33:27.148Z,63.20
2019-02-16T14:35:57.997Z,63.50
2019-02-16T14:39:00.260Z,63.80
2019-02-16T14:41:30.870Z,64.10
2019-02-16T14:44:01.751Z,64.10
2019-02-16T14:46:32.274Z,64.40
2019-02-16T14:49:03.197Z,64.60
2019-02-16T14:51:33.769Z,65.00
2019-02-16T14:54:04.337Z,65.20
2019-02-16T14:56:35.339Z,65.40
2019-02-16T14:59:06.289Z,65.60
2019-02-16T15:01:36.876Z,65.90
2019-02-16T15:04:07.708Z,66.00
2019-02-16T15:06:38.759Z,66.40
2019-02-16T15:09:09.894Z,66.30
2019-02-16T15:11:40.848Z,66.60
2019-02-16T15:14:11.379Z,66.80
2019-02-16T15:16:42.306Z,67.10
2019-02-16T15:19:12.809Z,67.20
2019-02-16T15:21:43.894Z,67.30
2019-02-16T15:24:14.512Z,67.50
2019-02-16T15:26:45.479Z,67.80
2019-02-16T15:29:16.385Z,68.30
2019-02-16T15:31:47.459Z,68.60
2019-02-16T15:34:18.144Z,68.90
2019-02-16T15:36:49.224Z,69.30
2019-02-16T15:39:21.278Z,69.50
2019-02-16T15:41:55.197Z,69.80
2019-02-16T15:44:27.150Z,70.70
2019-02-16T15:46:57.770Z,69.80
2019-02-16T15:49:28.284Z,70.10
2019-02-16T15:51:58.800Z,69.70
2019-02-16T15:54:29.378Z,69.70
2019-02-16T15:57:00.130Z,70.20
2019-02-16T15:59:35.161Z,70.00
2019-02-16T16:02:02.770Z,70.00
2019-02-16T16:04:33.291Z,70.10
2019-02-16T16:07:05.364Z,70.40
2019-02-16T16:09:49.442Z,70.40
2019-02-16T16:12:44.684Z,70.80
2019-02-16T16:15:41.563Z,70.50
2019-02-16T16:18:15.227Z,70.90
2019-02-16T16:21:07.412Z,70.90
2019-02-16T16:24:04.013Z,70.70
2019-02-16T16:27:02.906Z,71.10
2019-02-16T16:29:51.166Z,71.10
2019-02-16T16:32:33.446Z,71.30
2019-02-16T16:35:19.152Z,71.20
2019-02-16T16:37:59.277Z,71.90
2019-02-16T16:40:57.416Z,71.20
2019-02-16T16:44:04.821Z,71.20
2019-02-16T16:46:52.679Z,71.20
2019-02-16T16:49:47.692Z,71.30
2019-02-16T16:52:35.457Z,71.60
2019-02-16T16:55:34.328Z,71.50
2019-02-16T16:58:23.780Z,71.60
2019-02-16T17:01:22.423Z,71.60
2019-02-16T17:04:17.465Z,71.70
2019-02-16T17:07:19.208Z,71.80
2019-02-16T17:10:14.731Z,72.00
2019-02-16T17:13:07.427Z,72.00
2019-02-16T17:15:55.412Z,72.30
2019-02-16T17:18:42.796Z,71.60
2019-02-16T17:21:48.073Z,71.70
2019-02-16T17:24:53.109Z,72.00
2019-02-16T17:27:48.646Z,71.60
2019-02-16T17:30:38.128Z,71.70
2019-02-16T17:33:34.108Z,72.00
2019-02-16T17:36:14.975Z,71.80
2019-02-16T17:38:54.829Z,72.50
2019-02-16T17:41:42.759Z,71.90
2019-02-16T17:44:44.629Z,71.70
2019-02-16T17:47:33.288Z,71.70
2019-02-16T17:50:32.205Z,72.30
2019-02-16T17:53:21.600Z,72.30
2019-02-16T17:56:10.045Z,71.80
2019-02-16T17:59:02.099Z,71.90
2019-02-16T18:01:47.721Z,72.00
2019-02-16T18:04:40.119Z,72.10
2019-02-16T18:07:48.115Z,72.20
2019-02-16T18:10:31.095Z,72.00
2019-02-16T18:13:23.149Z,72.60
2019-02-16T18:15:59.896Z,72.50
2019-02-16T18:18:49.342Z,72.10
2019-02-16T18:21:26.444Z,72.30
2019-02-16T18:24:10.313Z,71.80
2019-02-16T18:26:57.216Z,72.00
2019-02-16T18:29:46.705Z,72.00
2019-02-16T18:32:45.297Z,72.30
2019-02-16T18:35:33.553Z,72.30
2019-02-16T18:38:16.759Z,71.90
2019-02-16T18:41:09.129Z,71.90
2019-02-16T18:44:01.882Z,71.90
2019-02-16T18:46:49.091Z,72.20
2019-02-16T18:49:42.661Z,72.70
2019-02-16T18:52:30.834Z,71.80
2019-02-16T18:55:32.184Z,72.70
2019-02-16T18:58:24.400Z,71.80
2019-02-16T19:01:26.808Z,71.90
2019-02-16T19:04:25.186Z,71.80
2019-02-16T19:07:14.595Z,73.10
2019-02-16T19:10:02.563Z,71.00
2019-02-16T19:12:57.659Z,71.70
2019-02-16T19:15:56.306Z,70.30
2019-02-16T19:18:44.675Z,71.60
2019-02-16T19:21:21.096Z,70.70
2019-02-16T19:24:00.505Z,71.30
2019-02-16T19:26:50.102Z,71.50
2019-02-16T19:29:32.913Z,71.70
2019-02-16T19:32:20.044Z,71.90
2019-02-16T19:35:09.451Z,71.80
2019-02-16T19:37:58.893Z,71.30
2019-02-16T19:40:51.303Z,70.20
2019-02-16T19:43:29.965Z,71.40
2019-02-16T19:46:24.119Z,71.30
2019-02-16T19:49:19.632Z,70.40
2019-02-16T19:52:02.258Z,71.40
2019-02-16T19:54:59.110Z,70.90
2019-02-16T19:57:47.513Z,71.30
2019-02-16T20:00:33.351Z,72.30
2019-02-16T20:03:37.829Z,70.50
2019-02-16T20:06:17.921Z,72.10
2019-02-16T20:09:07.338Z,71.50
2019-02-16T20:11:52.280Z,71.50
2019-02-16T20:14:44.727Z,70.90
2019-02-16T20:17:34.144Z,71.40
2019-02-16T20:20:39.264Z,71.50
2019-02-16T20:23:23.993Z,71.10
2019-02-16T20:26:31.935Z,70.90
2019-02-16T20:29:11.250Z,72.80
2019-02-16T20:32:12.792Z,71.50
2019-02-16T20:34:56.508Z,72.20
2019-02-16T20:37:41.189Z,71.50
2019-02-16T20:40:36.488Z,70.80
2019-02-16T20:43:13.570Z,71.50
2019-02-16T20:46:03.006Z,71.50
2019-02-16T20:48:51.184Z,71.20
2019-02-16T20:51:42.133Z,71.10
2019-02-16T20:54:37.819Z,71.40
2019-02-16T20:57:17.649Z,71.10
2019-02-16T21:00:02.716Z,71.20
2019-02-16T21:02:59.404Z,71.60
2019-02-16T21:06:02.181Z,71.40
2019-02-16T21:08:48.260Z,71.80
2019-02-16T21:11:26.802Z,71.60
2019-02-16T21:14:16.203Z,71.50
2019-02-16T21:17:08.633Z,71.10
2019-02-16T21:19:49.128Z,71.30
2019-02-16T21:22:26.541Z,71.90
2019-02-16T21:25:22.236Z,72.20
2019-02-16T21:27:59.277Z,72.10
2019-02-16T21:30:36.322Z,72.00
2019-02-16T21:33:25.764Z,71.80
2019-02-16T21:36:33.973Z,71.70
2019-02-16T21:39:35.012Z,71.70
2019-02-16T21:42:13.984Z,72.00
2019-02-16T21:45:13.314Z,72.00
2019-02-16T21:48:14.679Z,72.10
2019-02-16T21:51:02.699Z,72.20
2019-02-16T21:53:47.399Z,72.30
2019-02-16T21:56:36.803Z,72.20
2019-02-16T21:59:26.556Z,72.40
2019-02-16T22:02:22.251Z,72.40
2019-02-16T22:05:20.599Z,72.20
2019-02-16T22:08:15.816Z,72.30
2019-02-16T22:11:03.778Z,72.20
2019-02-16T22:13:34.405Z,72.40
2019-02-16T22:16:04.968Z,72.40
2019-02-16T22:18:41.508Z,72.40
2019-02-16T22:21:12.323Z,72.40
2019-02-16T22:23:42.861Z,72.00
2019-02-16T22:26:14.572Z,72.30
2019-02-16T22:28:45.104Z,72.40
2019-02-16T22:31:17.755Z,72.70
2019-02-16T22:33:47.752Z,72.80
2019-02-16T22:36:18.393Z,73.70
2019-02-16T22:38:50.011Z,73.20
2019-02-16T22:41:20.546Z,73.00
2019-02-16T22:43:51.112Z,72.90
2019-02-16T22:46:21.633Z,73.50
2019-02-16T22:48:52.277Z,73.80
2019-02-16T22:51:22.795Z,73.60
2019-02-16T22:53:53.322Z,73.70
2019-02-16T22:56:23.897Z,73.40
2019-02-16T22:58:54.804Z,73.70
2019-02-16T23:01:25.960Z,74.50
2019-02-16T23:03:56.451Z,73.70
2019-02-16T23:06:27.116Z,73.60
2019-02-16T23:08:57.722Z,73.70
2019-02-16T23:11:28.225Z,74.00
2019-02-16T23:13:58.709Z,74.10
2019-02-16T23:16:29.220Z,74.10
2019-02-16T23:18:59.729Z,74.20
2019-02-16T23:21:30.236Z,74.30
2019-02-16T23:24:00.729Z,74.50
2019-02-16T23:26:31.316Z,74.50
2019-02-16T23:29:01.992Z,74.70
2019-02-16T23:31:32.624Z,74.80
2019-02-16T23:34:03.287Z,75.50
2019-02-16T23:36:33.813Z,75.50
2019-02-16T23:39:05.809Z,76.00
2019-02-16T23:41:37.929Z,76.00
2019-02-16T23:44:08.499Z,75.80
2019-02-16T23:46:39.002Z,75.90
2019-02-16T23:49:09.652Z,76.20
2019-02-16T23:51:40.178Z,77.00
2019-02-16T23:54:11.198Z,77.30
2019-02-16T23:56:42.170Z,77.70
2019-02-16T23:59:13.064Z,77.90
